sensor_id;sensor_type;location;lat;lon;timestamp;temperature;humidity
13992;DHT22;7070;53.586;9.692;2022-10-31T00:01:59;12.40;90.30
13992;DHT22;7070;53.586;9.692;2022-10-31T00:04:26;12.40;90.40
13992;DHT22;7070;53.586;9.692;2022-10-31T00:06:52;12.40;90.40
13992;DHT22;7070;53.586;9.692;2022-10-31T00:09:19;12.50;90.40
13992;DHT22;7070;53.586;9.692;2022-10-31T00:11:46;12.50;90.50
13992;DHT22;7070;53.586;9.692;2022-10-31T00:14:14;12.50;90.50
13992;DHT22;7070;53.586;9.692;2022-10-31T00:16:41;12.50;90.50
13992;DHT22;7070;53.586;9.692;2022-10-31T00:19:08;12.50;90.50
13992;DHT22;7070;53.586;9.692;2022-10-31T00:21:35;12.50;90.50
13992;DHT22;7070;53.586;9.692;2022-10-31T00:24:02;12.60;90.60
13992;DHT22;7070;53.586;9.692;2022-10-31T00:26:29;12.60;90.60
13992;DHT22;7070;53.586;9.692;2022-10-31T00:28:56;12.60;90.60
13992;DHT22;7070;53.586;9.692;2022-10-31T00:31:25;12.60;90.50
13992;DHT22;7070;53.586;9.692;2022-10-31T00:33:51;12.60;90.50
13992;DHT22;7070;53.586;9.692;2022-10-31T00:36:19;12.60;90.50
13992;DHT22;7070;53.586;9.692;2022-10-31T00:38:47;12.60;90.40
13992;DHT22;7070;53.586;9.692;2022-10-31T00:41:15;12.60;90.40
13992;DHT22;7070;53.586;9.692;2022-10-31T00:43:43;12.60;90.40
13992;DHT22;7070;53.586;9.692;2022-10-31T00:46:09;12.60;90.40
13992;DHT22;7070;53.586;9.692;2022-10-31T00:48:37;12.60;90.40
13992;DHT22;7070;53.586;9.692;2022-10-31T00:51:05;12.60;90.40
13992;DHT22;7070;53.586;9.692;2022-10-31T00:53:31;12.60;90.40
13992;DHT22;7070;53.586;9.692;2022-10-31T00:55:58;12.60;90.40
13992;DHT22;7070;53.586;9.692;2022-10-31T00:58:25;12.60;90.40
13992;DHT22;7070;53.586;9.692;2022-10-31T01:00:53;12.60;90.40
13992;DHT22;7070;53.586;9.692;2022-10-31T01:03:21;12.60;90.40
13992;DHT22;7070;53.586;9.692;2022-10-31T01:05:57;12.50;90.30
13992;DHT22;7070;53.586;9.692;2022-10-31T01:08:24;12.50;90.40
13992;DHT22;7070;53.586;9.692;2022-10-31T01:11:03;12.50;90.40
13992;DHT22;7070;53.586;9.692;2022-10-31T01:13:30;12.50;90.40
13992;DHT22;7070;53.586;9.692;2022-10-31T01:15:58;12.50;90.40
13992;DHT22;7070;53.586;9.692;2022-10-31T01:18:25;12.50;90.40
13992;DHT22;7070;53.586;9.692;2022-10-31T01:21:01;12.50;90.40
13992;DHT22;7070;53.586;9.692;2022-10-31T01:23:29;12.50;90.40
13992;DHT22;7070;53.586;9.692;2022-10-31T01:26:00;12.50;90.40
13992;DHT22;7070;53.586;9.692;2022-10-31T01:28:27;12.50;90.50
13992;DHT22;7070;53.586;9.692;2022-10-31T01:30:54;12.40;90.50
13992;DHT22;7070;53.586;9.692;2022-10-31T01:33:21;12.40;90.50
13992;DHT22;7070;53.586;9.692;2022-10-31T01:35:47;12.50;90.50
13992;DHT22;7070;53.586;9.692;2022-10-31T01:38:15;12.50;90.60
13992;DHT22;7070;53.586;9.692;2022-10-31T01:40:42;12.40;90.50
13992;DHT22;7070;53.586;9.692;2022-10-31T01:43:12;12.50;90.60
13992;DHT22;7070;53.586;9.692;2022-10-31T01:45:40;12.40;90.50
13992;DHT22;7070;53.586;9.692;2022-10-31T01:48:13;12.50;90.60
13992;DHT22;7070;53.586;9.692;2022-10-31T01:50:41;12.50;90.60
13992;DHT22;7070;53.586;9.692;2022-10-31T01:53:10;12.50;90.70
13992;DHT22;7070;53.586;9.692;2022-10-31T01:55:40;12.50;90.80
13992;DHT22;7070;53.586;9.692;2022-10-31T01:58:11;12.50;90.80
13992;DHT22;7070;53.586;9.692;2022-10-31T02:00:39;12.60;90.90
13992;DHT22;7070;53.586;9.692;2022-10-31T02:03:06;12.60;91.00
13992;DHT22;7070;53.586;9.692;2022-10-31T02:05:33;12.70;91.10
13992;DHT22;7070;53.586;9.692;2022-10-31T02:08:02;12.80;91.10
13992;DHT22;7070;53.586;9.692;2022-10-31T02:10:32;12.80;91.10
13992;DHT22;7070;53.586;9.692;2022-10-31T02:13:03;12.90;91.10
13992;DHT22;7070;53.586;9.692;2022-10-31T02:15:30;12.90;90.90
13992;DHT22;7070;53.586;9.692;2022-10-31T02:17:58;13.00;90.90
13992;DHT22;7070;53.586;9.692;2022-10-31T02:20:32;13.00;90.80
13992;DHT22;7070;53.586;9.692;2022-10-31T02:23:22;13.00;90.70
13992;DHT22;7070;53.586;9.692;2022-10-31T02:26:16;12.90;90.60
13992;DHT22;7070;53.586;9.692;2022-10-31T02:29:07;13.00;90.70
13992;DHT22;7070;53.586;9.692;2022-10-31T02:31:42;12.90;90.60
13992;DHT22;7070;53.586;9.692;2022-10-31T02:34:17;12.90;90.60
13992;DHT22;7070;53.586;9.692;2022-10-31T02:36:52;12.90;90.70
13992;DHT22;7070;53.586;9.692;2022-10-31T02:39:24;12.90;90.70
13992;DHT22;7070;53.586;9.692;2022-10-31T02:42:00;12.90;90.70
13992;DHT22;7070;53.586;9.692;2022-10-31T02:44:32;12.90;90.70
13992;DHT22;7070;53.586;9.692;2022-10-31T02:47:06;12.90;90.70
13992;DHT22;7070;53.586;9.692;2022-10-31T02:49:38;12.80;90.70
13992;DHT22;7070;53.586;9.692;2022-10-31T02:52:16;12.80;90.70
13992;DHT22;7070;53.586;9.692;2022-10-31T02:54:44;12.80;90.70
13992;DHT22;7070;53.586;9.692;2022-10-31T02:57:12;12.80;90.60
13992;DHT22;7070;53.586;9.692;2022-10-31T02:59:45;12.80;90.70
13992;DHT22;7070;53.586;9.692;2022-10-31T03:02:33;12.80;90.70
13992;DHT22;7070;53.586;9.692;2022-10-31T03:08:12;12.70;90.60
13992;DHT22;7070;53.586;9.692;2022-10-31T03:10:46;12.70;90.60
13992;DHT22;7070;53.586;9.692;2022-10-31T03:13:21;12.60;90.50
13992;DHT22;7070;53.586;9.692;2022-10-31T03:15:53;12.60;90.60
13992;DHT22;7070;53.586;9.692;2022-10-31T03:18:26;12.60;90.60
13992;DHT22;7070;53.586;9.692;2022-10-31T03:20:59;12.60;90.60
13992;DHT22;7070;53.586;9.692;2022-10-31T03:23:28;12.50;90.60
13992;DHT22;7070;53.586;9.692;2022-10-31T03:25:56;12.50;90.60
13992;DHT22;7070;53.586;9.692;2022-10-31T03:28:29;12.50;90.60
13992;DHT22;7070;53.586;9.692;2022-10-31T03:30:58;12.50;90.60
13992;DHT22;7070;53.586;9.692;2022-10-31T03:33:28;12.40;90.50
13992;DHT22;7070;53.586;9.692;2022-10-31T03:35:58;12.50;90.50
13992;DHT22;7070;53.586;9.692;2022-10-31T03:38:27;12.50;90.60
13992;DHT22;7070;53.586;9.692;2022-10-31T03:40:56;12.40;90.50
13992;DHT22;7070;53.586;9.692;2022-10-31T03:43:28;12.40;90.50
13992;DHT22;7070;53.586;9.692;2022-10-31T03:45:56;12.40;90.60
13992;DHT22;7070;53.586;9.692;2022-10-31T03:48:23;12.30;90.50
13992;DHT22;7070;53.586;9.692;2022-10-31T03:50:57;12.30;90.50
13992;DHT22;7070;53.586;9.692;2022-10-31T03:53:30;12.30;90.50
13992;DHT22;7070;53.586;9.692;2022-10-31T03:56:02;12.20;90.50
13992;DHT22;7070;53.586;9.692;2022-10-31T03:58:33;12.30;90.60
13992;DHT22;7070;53.586;9.692;2022-10-31T04:01:06;12.20;90.60
13992;DHT22;7070;53.586;9.692;2022-10-31T04:03:35;12.20;90.60
13992;DHT22;7070;53.586;9.692;2022-10-31T04:06:06;12.20;90.60
13992;DHT22;7070;53.586;9.692;2022-10-31T04:08:39;12.20;90.80
13992;DHT22;7070;53.586;9.692;2022-10-31T04:11:08;12.30;90.90
13992;DHT22;7070;53.586;9.692;2022-10-31T04:13:37;12.30;91.00
13992;DHT22;7070;53.586;9.692;2022-10-31T04:16:06;12.40;91.20
13992;DHT22;7070;53.586;9.692;2022-10-31T04:18:33;12.50;91.20
13992;DHT22;7070;53.586;9.692;2022-10-31T04:21:01;12.50;91.30
13992;DHT22;7070;53.586;9.692;2022-10-31T04:23:30;12.60;91.30
13992;DHT22;7070;53.586;9.692;2022-10-31T04:25:57;12.80;91.30
13992;DHT22;7070;53.586;9.692;2022-10-31T04:28:24;12.80;91.30
13992;DHT22;7070;53.586;9.692;2022-10-31T04:30:51;12.90;91.30
13992;DHT22;7070;53.586;9.692;2022-10-31T04:33:18;13.00;91.40
13992;DHT22;7070;53.586;9.692;2022-10-31T04:35:45;13.00;91.40
13992;DHT22;7070;53.586;9.692;2022-10-31T04:38:12;13.10;91.30
13992;DHT22;7070;53.586;9.692;2022-10-31T04:40:40;13.20;91.40
13992;DHT22;7070;53.586;9.692;2022-10-31T04:43:06;13.30;91.40
13992;DHT22;7070;53.586;9.692;2022-10-31T04:45:33;13.30;91.30
13992;DHT22;7070;53.586;9.692;2022-10-31T04:48:00;13.40;91.40
13992;DHT22;7070;53.586;9.692;2022-10-31T04:50:27;13.50;91.40
13992;DHT22;7070;53.586;9.692;2022-10-31T04:52:53;13.50;91.40
13992;DHT22;7070;53.586;9.692;2022-10-31T04:55:20;13.50;91.40
13992;DHT22;7070;53.586;9.692;2022-10-31T04:57:49;13.60;91.30
13992;DHT22;7070;53.586;9.692;2022-10-31T05:00:19;13.60;91.30
13992;DHT22;7070;53.586;9.692;2022-10-31T05:02:46;13.70;91.40
13992;DHT22;7070;53.586;9.692;2022-10-31T05:05:14;13.70;91.30
13992;DHT22;7070;53.586;9.692;2022-10-31T05:07:42;13.70;91.30
13992;DHT22;7070;53.586;9.692;2022-10-31T05:10:10;13.70;91.30
13992;DHT22;7070;53.586;9.692;2022-10-31T05:12:37;13.70;91.20
13992;DHT22;7070;53.586;9.692;2022-10-31T05:15:06;14.50;91.60
13992;DHT22;7070;53.586;9.692;2022-10-31T05:17:33;13.80;91.20
13992;DHT22;7070;53.586;9.692;2022-10-31T05:20:00;13.80;91.20
13992;DHT22;7070;53.586;9.692;2022-10-31T05:22:26;13.80;91.20
13992;DHT22;7070;53.586;9.692;2022-10-31T05:24:53;13.80;91.20
13992;DHT22;7070;53.586;9.692;2022-10-31T05:27:20;13.80;91.20
13992;DHT22;7070;53.586;9.692;2022-10-31T05:29:47;13.90;91.20
13992;DHT22;7070;53.586;9.692;2022-10-31T05:32:15;13.80;91.10
13992;DHT22;7070;53.586;9.692;2022-10-31T05:34:42;13.90;91.20
13992;DHT22;7070;53.586;9.692;2022-10-31T05:37:08;13.80;91.10
13992;DHT22;7070;53.586;9.692;2022-10-31T05:39:35;13.80;91.20
13992;DHT22;7070;53.586;9.692;2022-10-31T05:42:02;13.90;91.20
13992;DHT22;7070;53.586;9.692;2022-10-31T05:44:29;13.80;91.20
13992;DHT22;7070;53.586;9.692;2022-10-31T05:46:55;13.80;91.20
13992;DHT22;7070;53.586;9.692;2022-10-31T05:49:24;13.80;91.20
13992;DHT22;7070;53.586;9.692;2022-10-31T05:51:51;13.90;91.20
13992;DHT22;7070;53.586;9.692;2022-10-31T05:54:18;13.90;91.20
13992;DHT22;7070;53.586;9.692;2022-10-31T05:56:45;13.90;91.20
13992;DHT22;7070;53.586;9.692;2022-10-31T05:59:11;13.90;91.20
13992;DHT22;7070;53.586;9.692;2022-10-31T06:01:38;13.90;91.20
13992;DHT22;7070;53.586;9.692;2022-10-31T06:04:05;13.90;91.20
13992;DHT22;7070;53.586;9.692;2022-10-31T06:06:33;13.90;91.20
13992;DHT22;7070;53.586;9.692;2022-10-31T06:09:00;13.90;91.20
13992;DHT22;7070;53.586;9.692;2022-10-31T06:11:26;13.90;91.10
13992;DHT22;7070;53.586;9.692;2022-10-31T06:13:53;13.90;91.10
13992;DHT22;7070;53.586;9.692;2022-10-31T06:16:20;13.90;91.20
13992;DHT22;7070;53.586;9.692;2022-10-31T06:18:47;13.90;91.10
13992;DHT22;7070;53.586;9.692;2022-10-31T06:21:14;13.90;91.10
13992;DHT22;7070;53.586;9.692;2022-10-31T06:23:42;13.90;91.00
13992;DHT22;7070;53.586;9.692;2022-10-31T06:26:08;13.90;91.00
13992;DHT22;7070;53.586;9.692;2022-10-31T06:28:35;13.90;91.00
13992;DHT22;7070;53.586;9.692;2022-10-31T06:31:02;13.80;91.00
13992;DHT22;7070;53.586;9.692;2022-10-31T06:33:30;13.80;91.00
13992;DHT22;7070;53.586;9.692;2022-10-31T06:35:57;13.80;91.00
13992;DHT22;7070;53.586;9.692;2022-10-31T06:38:25;13.80;91.00
13992;DHT22;7070;53.586;9.692;2022-10-31T06:40:53;13.80;91.00
13992;DHT22;7070;53.586;9.692;2022-10-31T06:43:20;13.80;91.00
13992;DHT22;7070;53.586;9.692;2022-10-31T06:45:48;13.80;91.10
13992;DHT22;7070;53.586;9.692;2022-10-31T06:48:14;13.80;91.10
13992;DHT22;7070;53.586;9.692;2022-10-31T06:50:41;13.80;91.10
13992;DHT22;7070;53.586;9.692;2022-10-31T06:53:09;13.70;91.00
13992;DHT22;7070;53.586;9.692;2022-10-31T06:55:36;13.80;91.10
13992;DHT22;7070;53.586;9.692;2022-10-31T06:58:04;13.80;91.10
13992;DHT22;7070;53.586;9.692;2022-10-31T07:00:31;13.80;91.20
13992;DHT22;7070;53.586;9.692;2022-10-31T07:02:59;13.80;91.20
13992;DHT22;7070;53.586;9.692;2022-10-31T07:05:27;13.80;91.20
13992;DHT22;7070;53.586;9.692;2022-10-31T07:07:54;13.80;91.10
13992;DHT22;7070;53.586;9.692;2022-10-31T07:10:22;13.90;91.20
13992;DHT22;7070;53.586;9.692;2022-10-31T07:12:54;13.80;91.10
13992;DHT22;7070;53.586;9.692;2022-10-31T07:15:22;13.80;91.40
13992;DHT22;7070;53.586;9.692;2022-10-31T07:17:49;13.80;91.10
13992;DHT22;7070;53.586;9.692;2022-10-31T07:20:16;13.80;91.10
13992;DHT22;7070;53.586;9.692;2022-10-31T07:22:43;13.90;91.20
13992;DHT22;7070;53.586;9.692;2022-10-31T07:25:10;13.90;91.50
13992;DHT22;7070;53.586;9.692;2022-10-31T07:27:37;13.90;91.20
13992;DHT22;7070;53.586;9.692;2022-10-31T07:30:06;13.90;91.20
13992;DHT22;7070;53.586;9.692;2022-10-31T07:32:39;13.90;91.20
13992;DHT22;7070;53.586;9.692;2022-10-31T07:35:07;13.90;91.10
13992;DHT22;7070;53.586;9.692;2022-10-31T07:37:34;13.90;91.20
13992;DHT22;7070;53.586;9.692;2022-10-31T07:40:00;13.90;91.20
13992;DHT22;7070;53.586;9.692;2022-10-31T07:42:27;13.90;91.10
13992;DHT22;7070;53.586;9.692;2022-10-31T07:44:54;14.00;91.20
13992;DHT22;7070;53.586;9.692;2022-10-31T07:47:21;14.00;91.20
13992;DHT22;7070;53.586;9.692;2022-10-31T07:49:49;14.00;91.20
13992;DHT22;7070;53.586;9.692;2022-10-31T07:52:16;14.00;91.20
13992;DHT22;7070;53.586;9.692;2022-10-31T07:54:42;14.00;91.10
13992;DHT22;7070;53.586;9.692;2022-10-31T07:57:09;14.00;91.20
13992;DHT22;7070;53.586;9.692;2022-10-31T07:59:36;14.00;91.20
13992;DHT22;7070;53.586;9.692;2022-10-31T08:02:03;14.00;91.20
13992;DHT22;7070;53.586;9.692;2022-10-31T08:04:29;14.00;91.10
13992;DHT22;7070;53.586;9.692;2022-10-31T08:06:58;14.00;91.10
13992;DHT22;7070;53.586;9.692;2022-10-31T08:09:24;14.00;91.10
13992;DHT22;7070;53.586;9.692;2022-10-31T08:11:52;14.00;91.20
13992;DHT22;7070;53.586;9.692;2022-10-31T08:14:19;14.00;91.20
13992;DHT22;7070;53.586;9.692;2022-10-31T08:16:46;14.10;91.20
13992;DHT22;7070;53.586;9.692;2022-10-31T08:19:13;14.10;91.10
13992;DHT22;7070;53.586;9.692;2022-10-31T08:21:40;14.10;91.10
13992;DHT22;7070;53.586;9.692;2022-10-31T08:24:08;14.10;91.10
13992;DHT22;7070;53.586;9.692;2022-10-31T08:26:35;14.10;91.10
13992;DHT22;7070;53.586;9.692;2022-10-31T08:29:02;14.10;91.10
13992;DHT22;7070;53.586;9.692;2022-10-31T08:31:29;14.10;91.20
13992;DHT22;7070;53.586;9.692;2022-10-31T08:33:56;14.20;91.20
13992;DHT22;7070;53.586;9.692;2022-10-31T08:36:22;14.20;91.30
13992;DHT22;7070;53.586;9.692;2022-10-31T08:38:49;14.30;91.40
13992;DHT22;7070;53.586;9.692;2022-10-31T08:41:17;14.30;91.30
13992;DHT22;7070;53.586;9.692;2022-10-31T08:43:44;14.40;91.20
13992;DHT22;7070;53.586;9.692;2022-10-31T08:46:11;14.40;91.30
13992;DHT22;7070;53.586;9.692;2022-10-31T08:48:38;14.40;91.30
13992;DHT22;7070;53.586;9.692;2022-10-31T08:51:05;14.50;91.30
13992;DHT22;7070;53.586;9.692;2022-10-31T08:53:31;14.60;91.30
13992;DHT22;7070;53.586;9.692;2022-10-31T08:55:58;14.70;91.40
13992;DHT22;7070;53.586;9.692;2022-10-31T08:58:26;14.70;91.40
13992;DHT22;7070;53.586;9.692;2022-10-31T09:00:54;14.80;91.40
13992;DHT22;7070;53.586;9.692;2022-10-31T09:03:24;14.90;91.50
13992;DHT22;7070;53.586;9.692;2022-10-31T09:05:55;15.00;91.40
13992;DHT22;7070;53.586;9.692;2022-10-31T09:08:22;15.10;91.40
13992;DHT22;7070;53.586;9.692;2022-10-31T09:10:49;15.20;91.30
13992;DHT22;7070;53.586;9.692;2022-10-31T09:13:17;15.20;91.30
13992;DHT22;7070;53.586;9.692;2022-10-31T09:15:48;15.20;91.20
13992;DHT22;7070;53.586;9.692;2022-10-31T09:18:18;15.20;91.00
13992;DHT22;7070;53.586;9.692;2022-10-31T09:20:46;15.20;91.00
13992;DHT22;7070;53.586;9.692;2022-10-31T09:23:15;15.20;91.00
13992;DHT22;7070;53.586;9.692;2022-10-31T09:25:42;15.30;91.20
13992;DHT22;7070;53.586;9.692;2022-10-31T09:28:11;15.30;91.20
13992;DHT22;7070;53.586;9.692;2022-10-31T09:30:38;15.40;91.30
13992;DHT22;7070;53.586;9.692;2022-10-31T09:33:09;15.40;91.50
13992;DHT22;7070;53.586;9.692;2022-10-31T09:35:39;15.50;91.20
13992;DHT22;7070;53.586;9.692;2022-10-31T09:38:08;15.50;91.20
13992;DHT22;7070;53.586;9.692;2022-10-31T09:40:37;15.60;91.30
13992;DHT22;7070;53.586;9.692;2022-10-31T09:43:12;15.70;91.30
13992;DHT22;7070;53.586;9.692;2022-10-31T09:45:47;15.70;91.30
13992;DHT22;7070;53.586;9.692;2022-10-31T09:48:44;15.80;91.20
13992;DHT22;7070;53.586;9.692;2022-10-31T09:51:17;15.90;91.20
13992;DHT22;7070;53.586;9.692;2022-10-31T09:53:48;15.90;91.20
13992;DHT22;7070;53.586;9.692;2022-10-31T09:56:19;16.00;91.10
13992;DHT22;7070;53.586;9.692;2022-10-31T09:58:51;16.00;91.10
13992;DHT22;7070;53.586;9.692;2022-10-31T10:01:35;16.10;91.10
13992;DHT22;7070;53.586;9.692;2022-10-31T10:04:17;16.10;91.00
13992;DHT22;7070;53.586;9.692;2022-10-31T10:06:49;16.20;91.00
13992;DHT22;7070;53.586;9.692;2022-10-31T10:09:18;16.20;91.00
13992;DHT22;7070;53.586;9.692;2022-10-31T10:11:53;16.20;91.00
13992;DHT22;7070;53.586;9.692;2022-10-31T10:14:36;16.30;91.00
13992;DHT22;7070;53.586;9.692;2022-10-31T10:17:17;16.30;90.90
13992;DHT22;7070;53.586;9.692;2022-10-31T10:20:04;16.30;90.90
13992;DHT22;7070;53.586;9.692;2022-10-31T10:22:37;16.30;90.90
13992;DHT22;7070;53.586;9.692;2022-10-31T10:25:15;16.40;90.90
13992;DHT22;7070;53.586;9.692;2022-10-31T10:27:50;16.40;90.90
13992;DHT22;7070;53.586;9.692;2022-10-31T10:30:20;16.40;91.00
13992;DHT22;7070;53.586;9.692;2022-10-31T10:32:50;16.50;91.00
13992;DHT22;7070;53.586;9.692;2022-10-31T10:35:23;16.50;91.00
13992;DHT22;7070;53.586;9.692;2022-10-31T10:38:01;16.60;91.10
13992;DHT22;7070;53.586;9.692;2022-10-31T10:40:29;16.60;91.00
13992;DHT22;7070;53.586;9.692;2022-10-31T10:43:01;16.70;91.10
13992;DHT22;7070;53.586;9.692;2022-10-31T10:45:50;16.80;91.00
13992;DHT22;7070;53.586;9.692;2022-10-31T10:48:42;16.90;91.10
13992;DHT22;7070;53.586;9.692;2022-10-31T10:51:20;16.90;91.00
13992;DHT22;7070;53.586;9.692;2022-10-31T10:53:57;17.00;90.90
13992;DHT22;7070;53.586;9.692;2022-10-31T10:56:36;17.10;90.90
13992;DHT22;7070;53.586;9.692;2022-10-31T10:59:09;17.10;90.70
13992;DHT22;7070;53.586;9.692;2022-10-31T11:01:38;17.10;90.70
13992;DHT22;7070;53.586;9.692;2022-10-31T11:04:23;17.10;90.60
13992;DHT22;7070;53.586;9.692;2022-10-31T11:06:59;17.10;90.60
13992;DHT22;7070;53.586;9.692;2022-10-31T11:09:26;17.20;90.60
13992;DHT22;7070;53.586;9.692;2022-10-31T11:11:53;17.20;90.60
13992;DHT22;7070;53.586;9.692;2022-10-31T11:14:20;17.20;90.50
13992;DHT22;7070;53.586;9.692;2022-10-31T11:16:50;17.10;90.50
13992;DHT22;7070;53.586;9.692;2022-10-31T11:19:20;17.10;90.50
13992;DHT22;7070;53.586;9.692;2022-10-31T11:21:48;17.10;90.50
13992;DHT22;7070;53.586;9.692;2022-10-31T11:24:19;17.20;90.50
13992;DHT22;7070;53.586;9.692;2022-10-31T11:26:47;17.10;90.40
13992;DHT22;7070;53.586;9.692;2022-10-31T11:29:17;17.20;90.30
13992;DHT22;7070;53.586;9.692;2022-10-31T11:31:47;17.20;90.30
13992;DHT22;7070;53.586;9.692;2022-10-31T11:34:26;17.20;90.20
13992;DHT22;7070;53.586;9.692;2022-10-31T11:36:54;17.10;90.10
13992;DHT22;7070;53.586;9.692;2022-10-31T11:39:26;17.10;90.00
13992;DHT22;7070;53.586;9.692;2022-10-31T11:41:54;17.10;90.00
13992;DHT22;7070;53.586;9.692;2022-10-31T11:44:23;17.00;89.80
13992;DHT22;7070;53.586;9.692;2022-10-31T11:46:52;17.10;90.00
13992;DHT22;7070;53.586;9.692;2022-10-31T11:49:27;17.00;89.80
13992;DHT22;7070;53.586;9.692;2022-10-31T11:51:56;17.10;89.90
13992;DHT22;7070;53.586;9.692;2022-10-31T11:54:26;17.10;89.70
13992;DHT22;7070;53.586;9.692;2022-10-31T11:56:54;17.10;89.70
13992;DHT22;7070;53.586;9.692;2022-10-31T11:59:26;17.10;89.60
13992;DHT22;7070;53.586;9.692;2022-10-31T12:01:55;17.20;89.60
13992;DHT22;7070;53.586;9.692;2022-10-31T12:04:32;17.20;89.50
13992;DHT22;7070;53.586;9.692;2022-10-31T12:07:00;17.20;89.40
13992;DHT22;7070;53.586;9.692;2022-10-31T12:09:32;17.20;89.40
13992;DHT22;7070;53.586;9.692;2022-10-31T12:12:18;17.20;89.20
13992;DHT22;7070;53.586;9.692;2022-10-31T12:14:57;17.30;89.10
13992;DHT22;7070;53.586;9.692;2022-10-31T12:17:29;17.20;88.50
13992;DHT22;7070;53.586;9.692;2022-10-31T12:20:03;17.20;88.50
13992;DHT22;7070;53.586;9.692;2022-10-31T12:22:39;17.20;88.40
13992;DHT22;7070;53.586;9.692;2022-10-31T12:25:29;17.20;88.50
13992;DHT22;7070;53.586;9.692;2022-10-31T12:28:12;17.20;88.60
13992;DHT22;7070;53.586;9.692;2022-10-31T12:30:52;17.20;88.40
13992;DHT22;7070;53.586;9.692;2022-10-31T12:33:30;17.30;88.50
13992;DHT22;7070;53.586;9.692;2022-10-31T12:39:06;17.30;88.40
13992;DHT22;7070;53.586;9.692;2022-10-31T12:41:45;17.30;88.30
13992;DHT22;7070;53.586;9.692;2022-10-31T12:44:37;17.30;88.10
13992;DHT22;7070;53.586;9.692;2022-10-31T12:47:21;17.30;87.90
13992;DHT22;7070;53.586;9.692;2022-10-31T12:49:57;17.30;87.60
13992;DHT22;7070;53.586;9.692;2022-10-31T12:52:35;17.30;87.50
13992;DHT22;7070;53.586;9.692;2022-10-31T12:55:29;17.30;87.40
13992;DHT22;7070;53.586;9.692;2022-10-31T12:58:07;17.30;87.40
13992;DHT22;7070;53.586;9.692;2022-10-31T13:00:38;17.20;87.30
13992;DHT22;7070;53.586;9.692;2022-10-31T13:03:20;17.30;87.30
13992;DHT22;7070;53.586;9.692;2022-10-31T13:05:51;17.30;87.20
13992;DHT22;7070;53.586;9.692;2022-10-31T13:08:21;17.20;86.90
13992;DHT22;7070;53.586;9.692;2022-10-31T13:10:52;17.20;86.90
13992;DHT22;7070;53.586;9.692;2022-10-31T13:13:40;17.20;86.90
13992;DHT22;7070;53.586;9.692;2022-10-31T13:16:12;17.10;86.90
13992;DHT22;7070;53.586;9.692;2022-10-31T13:18:44;17.10;86.90
13992;DHT22;7070;53.586;9.692;2022-10-31T13:21:17;17.10;86.90
13992;DHT22;7070;53.586;9.692;2022-10-31T13:23:46;17.10;86.90
13992;DHT22;7070;53.586;9.692;2022-10-31T13:26:20;17.10;86.90
13992;DHT22;7070;53.586;9.692;2022-10-31T13:29:02;17.10;86.60
13992;DHT22;7070;53.586;9.692;2022-10-31T13:31:31;17.10;86.30
13992;DHT22;7070;53.586;9.692;2022-10-31T13:34:04;17.00;86.00
13992;DHT22;7070;53.586;9.692;2022-10-31T13:36:39;16.90;86.00
13992;DHT22;7070;53.586;9.692;2022-10-31T13:39:18;16.90;85.90
13992;DHT22;7070;53.586;9.692;2022-10-31T13:41:51;16.90;85.60
13992;DHT22;7070;53.586;9.692;2022-10-31T13:44:22;16.80;85.50
13992;DHT22;7070;53.586;9.692;2022-10-31T13:46:51;16.70;85.50
13992;DHT22;7070;53.586;9.692;2022-10-31T13:49:38;16.60;85.50
13992;DHT22;7070;53.586;9.692;2022-10-31T13:52:12;16.50;85.40
13992;DHT22;7070;53.586;9.692;2022-10-31T13:54:41;16.40;85.20
13992;DHT22;7070;53.586;9.692;2022-10-31T13:57:16;16.30;85.30
13992;DHT22;7070;53.586;9.692;2022-10-31T13:59:50;16.20;85.50
13992;DHT22;7070;53.586;9.692;2022-10-31T14:02:26;16.10;85.70
13992;DHT22;7070;53.586;9.692;2022-10-31T14:04:56;16.00;86.00
13992;DHT22;7070;53.586;9.692;2022-10-31T14:07:25;16.00;86.30
13992;DHT22;7070;53.586;9.692;2022-10-31T14:09:56;16.10;86.70
13992;DHT22;7070;53.586;9.692;2022-10-31T14:12:27;16.00;86.80
13992;DHT22;7070;53.586;9.692;2022-10-31T14:14:59;16.10;87.10
13992;DHT22;7070;53.586;9.692;2022-10-31T14:17:32;16.10;87.10
13992;DHT22;7070;53.586;9.692;2022-10-31T14:25:52;16.20;87.10
13992;DHT22;7070;53.586;9.692;2022-10-31T14:28:20;16.20;86.90
13992;DHT22;7070;53.586;9.692;2022-10-31T14:30:54;16.20;86.80
13992;DHT22;7070;53.586;9.692;2022-10-31T14:33:22;16.10;86.50
13992;DHT22;7070;53.586;9.692;2022-10-31T14:35:56;16.00;86.30
13992;DHT22;7070;53.586;9.692;2022-10-31T14:38:50;16.00;86.30
13992;DHT22;7070;53.586;9.692;2022-10-31T14:41:46;15.80;86.20
13992;DHT22;7070;53.586;9.692;2022-10-31T14:44:37;15.70;86.30
13992;DHT22;7070;53.586;9.692;2022-10-31T14:47:15;15.50;86.30
13992;DHT22;7070;53.586;9.692;2022-10-31T14:50:00;15.40;86.30
13992;DHT22;7070;53.586;9.692;2022-10-31T14:52:31;15.40;86.60
13992;DHT22;7070;53.586;9.692;2022-10-31T14:54:59;15.20;86.50
13992;DHT22;7070;53.586;9.692;2022-10-31T14:57:29;15.20;86.80
13992;DHT22;7070;53.586;9.692;2022-10-31T15:00:00;15.10;87.00
13992;DHT22;7070;53.586;9.692;2022-10-31T15:02:34;15.00;87.10
13992;DHT22;7070;53.586;9.692;2022-10-31T15:05:07;15.00;87.30
13992;DHT22;7070;53.586;9.692;2022-10-31T15:07:34;15.00;87.60
13992;DHT22;7070;53.586;9.692;2022-10-31T15:10:03;14.90;87.70
13992;DHT22;7070;53.586;9.692;2022-10-31T15:12:33;14.90;87.70
13992;DHT22;7070;53.586;9.692;2022-10-31T15:15:11;14.90;87.90
13992;DHT22;7070;53.586;9.692;2022-10-31T15:17:45;14.90;87.90
13992;DHT22;7070;53.586;9.692;2022-10-31T15:20:18;14.90;88.00
13992;DHT22;7070;53.586;9.692;2022-10-31T15:22:46;14.90;88.10
13992;DHT22;7070;53.586;9.692;2022-10-31T15:25:18;14.90;88.20
13992;DHT22;7070;53.586;9.692;2022-10-31T15:27:45;14.90;88.10
13992;DHT22;7070;53.586;9.692;2022-10-31T15:30:18;14.90;88.20
13992;DHT22;7070;53.586;9.692;2022-10-31T15:32:47;14.80;88.10
13992;DHT22;7070;53.586;9.692;2022-10-31T15:35:21;14.80;88.10
13992;DHT22;7070;53.586;9.692;2022-10-31T15:37:48;14.80;88.10
13992;DHT22;7070;53.586;9.692;2022-10-31T15:40:17;14.80;88.10
13992;DHT22;7070;53.586;9.692;2022-10-31T15:42:49;14.80;88.20
13992;DHT22;7070;53.586;9.692;2022-10-31T15:45:19;14.70;88.10
13992;DHT22;7070;53.586;9.692;2022-10-31T15:47:56;14.70;88.10
13992;DHT22;7070;53.586;9.692;2022-10-31T15:50:28;14.70;88.10
13992;DHT22;7070;53.586;9.692;2022-10-31T15:52:56;14.60;88.00
13992;DHT22;7070;53.586;9.692;2022-10-31T15:55:25;14.70;88.10
13992;DHT22;7070;53.586;9.692;2022-10-31T15:57:56;14.60;88.00
13992;DHT22;7070;53.586;9.692;2022-10-31T16:00:26;14.60;88.10
13992;DHT22;7070;53.586;9.692;2022-10-31T16:03:06;14.60;88.10
13992;DHT22;7070;53.586;9.692;2022-10-31T16:05:37;14.50;88.10
13992;DHT22;7070;53.586;9.692;2022-10-31T16:08:19;14.40;88.00
13992;DHT22;7070;53.586;9.692;2022-10-31T16:10:48;14.50;88.20
13992;DHT22;7070;53.586;9.692;2022-10-31T16:13:15;14.40;88.10
13992;DHT22;7070;53.586;9.692;2022-10-31T16:15:48;14.40;88.20
13992;DHT22;7070;53.586;9.692;2022-10-31T16:18:17;14.40;88.20
13992;DHT22;7070;53.586;9.692;2022-10-31T16:20:48;14.40;88.20